createdAt,value
2017-07-12T00:00:10.623Z,2.17
2017-07-12T00:02:38.113Z,2.22
2017-07-12T00:05:05.598Z,2.60
2017-07-12T00:07:33.089Z,2.10
2017-07-12T00:10:00.596Z,2.70
2017-07-12T00:12:28.081Z,2.35
2017-07-12T00:14:55.586Z,2.70
2017-07-12T00:17:23.109Z,2.22
2017-07-12T00:19:50.612Z,2.47
2017-07-12T00:22:18.121Z,2.10
2017-07-12T00:24:45.602Z,2.03
2017-07-12T00:27:13.096Z,2.85
2017-07-12T00:29:40.594Z,2.15
2017-07-12T00:32:08.086Z,2.00
2017-07-12T00:34:35.593Z,2.10
2017-07-12T00:37:03.113Z,2.70
2017-07-12T00:39:30.651Z,2.05
2017-07-12T00:41:58.153Z,2.20
2017-07-12T00:44:25.653Z,2.05
2017-07-12T00:46:53.511Z,2.17
2017-07-12T00:49:21.019Z,2.53
2017-07-12T00:51:48.525Z,2.05
2017-07-12T00:54:16.025Z,2.05
2017-07-12T00:56:43.521Z,2.35
2017-07-12T00:59:11.036Z,2.60
2017-07-12T01:01:38.534Z,2.28
2017-07-12T01:04:06.042Z,1.90
2017-07-12T01:06:33.549Z,2.25
2017-07-12T01:09:01.048Z,2.42
2017-07-12T01:11:28.557Z,2.45
2017-07-12T01:13:56.061Z,2.10
2017-07-12T01:16:23.570Z,2.70
2017-07-12T01:18:51.075Z,2.00
2017-07-12T01:21:18.570Z,2.17
2017-07-12T01:23:46.101Z,2.03
2017-07-12T01:26:13.603Z,2.58
2017-07-12T01:28:41.097Z,2.30
2017-07-12T01:31:08.589Z,2.35
2017-07-12T01:33:36.101Z,2.33
2017-07-12T01:36:03.626Z,2.55
2017-07-12T01:38:31.165Z,2.35
2017-07-12T01:40:58.658Z,2.40
2017-07-12T01:43:26.167Z,3.80
2017-07-12T01:45:53.663Z,1.95
2017-07-12T01:48:21.166Z,2.20
2017-07-12T01:50:48.696Z,2.08
2017-07-12T01:53:16.227Z,2.25
2017-07-12T01:55:43.738Z,1.90
2017-07-12T01:58:11.257Z,2.00
2017-07-12T02:00:39.774Z,1.90
2017-07-12T02:03:08.289Z,1.92
2017-07-12T02:05:35.813Z,2.35
2017-07-12T02:08:03.337Z,1.87
2017-07-12T02:10:31.862Z,1.80
2017-07-12T02:13:00.408Z,2.20
2017-07-12T02:15:27.938Z,2.33
2017-07-12T02:17:55.495Z,2.00
2017-07-12T02:20:23.013Z,2.35
2017-07-12T02:22:50.537Z,2.08
2017-07-12T02:25:18.063Z,2.47
2017-07-12T02:27:45.589Z,2.22
2017-07-12T02:30:13.105Z,1.60
2017-07-12T02:32:40.620Z,2.20
2017-07-12T02:35:08.134Z,1.90
2017-07-12T02:37:36.650Z,1.60
2017-07-12T02:40:04.166Z,2.10
2017-07-12T02:42:31.694Z,2.20
2017-07-12T02:44:59.212Z,2.15
2017-07-12T02:47:26.737Z,2.25
2017-07-12T02:49:54.258Z,2.15
2017-07-12T02:52:21.762Z,2.00
2017-07-12T02:54:49.269Z,2.00
2017-07-12T02:57:16.782Z,2.10
2017-07-12T02:59:44.287Z,2.10
2017-07-12T03:02:11.802Z,1.85
2017-07-12T03:04:39.308Z,1.92
2017-07-12T03:07:06.840Z,1.80
2017-07-12T03:09:34.354Z,2.50
2017-07-12T03:12:01.879Z,2.05
2017-07-12T03:14:29.390Z,1.90
2017-07-12T03:16:56.909Z,2.37
2017-07-12T03:19:24.443Z,1.73
2017-07-12T03:21:51.967Z,1.85
2017-07-12T03:24:19.482Z,1.58
2017-07-12T03:26:47.015Z,2.05
2017-07-12T03:29:14.559Z,1.55
2017-07-12T03:31:42.074Z,1.80
2017-07-12T03:34:10.613Z,1.75
2017-07-12T03:36:38.126Z,2.00
2017-07-12T03:39:05.644Z,1.87
2017-07-12T03:41:33.156Z,1.90
2017-07-12T03:44:00.682Z,1.85
2017-07-12T03:46:30.175Z,1.80
2017-07-12T03:48:59.642Z,1.70
2017-07-12T03:51:28.165Z,1.87
2017-07-12T03:53:55.674Z,1.70
2017-07-12T03:56:23.192Z,1.50
2017-07-12T03:58:50.697Z,1.83
2017-07-12T04:01:18.217Z,1.87
2017-07-12T04:03:45.731Z,2.12
2017-07-12T04:06:14.229Z,1.67
2017-07-12T04:08:41.742Z,2.00
2017-07-12T04:11:09.264Z,1.77
2017-07-12T04:13:37.785Z,1.70
2017-07-12T04:16:05.289Z,1.83
2017-07-12T04:18:32.807Z,2.17
2017-07-12T04:21:01.317Z,1.90
2017-07-12T04:23:28.821Z,1.95
2017-07-12T04:25:56.345Z,1.55
2017-07-12T04:28:23.857Z,1.60
2017-07-12T04:30:51.369Z,1.73
2017-07-12T04:33:18.878Z,1.80
2017-07-12T04:35:46.429Z,1.58
2017-07-12T04:38:13.940Z,1.80
2017-07-12T04:40:41.482Z,1.70
2017-07-12T04:43:09.015Z,1.83
2017-07-12T04:45:36.535Z,1.95
2017-07-12T04:48:04.055Z,1.65
2017-07-12T04:50:31.573Z,1.60
2017-07-12T04:52:59.098Z,1.75
2017-07-12T04:55:27.611Z,2.00
2017-07-12T04:57:55.131Z,1.30
2017-07-12T05:00:23.633Z,1.60
2017-07-12T05:02:51.146Z,1.90
2017-07-12T05:05:18.663Z,1.70
2017-07-12T05:07:46.188Z,1.80
2017-07-12T05:10:13.715Z,2.03
2017-07-12T05:12:41.239Z,1.60
2017-07-12T05:15:08.757Z,2.30
2017-07-12T05:17:36.277Z,1.77
2017-07-12T05:20:03.902Z,1.60
2017-07-12T05:22:31.442Z,2.42
2017-07-12T05:24:58.948Z,1.45
2017-07-12T05:27:26.457Z,1.65
2017-07-12T05:29:53.970Z,1.60
2017-07-12T05:32:21.481Z,1.70
2017-07-12T05:34:49.000Z,1.65
2017-07-12T05:37:16.325Z,2.00
2017-07-12T05:39:43.835Z,1.83
2017-07-12T05:42:11.340Z,1.95
2017-07-12T05:44:38.854Z,2.03
2017-07-12T05:47:06.397Z,2.00
2017-07-12T05:49:34.014Z,1.90
2017-07-12T05:52:01.529Z,2.22
2017-07-12T05:54:29.040Z,2.00
2017-07-12T05:56:56.563Z,1.92
2017-07-12T05:59:24.070Z,2.00
2017-07-12T06:01:51.574Z,1.90
2017-07-12T06:04:19.090Z,1.75
2017-07-12T06:06:46.603Z,1.77
2017-07-12T06:09:14.113Z,1.95
2017-07-12T06:11:41.629Z,2.10
2017-07-12T06:14:09.142Z,2.10
2017-07-12T06:16:36.654Z,2.15
2017-07-12T06:19:03.689Z,2.50
2017-07-12T06:21:32.857Z,1.90
2017-07-12T06:24:00.076Z,1.60
2017-07-12T06:26:27.595Z,1.52
2017-07-12T06:28:54.838Z,1.80
2017-07-12T06:31:22.076Z,1.40
2017-07-12T06:33:49.306Z,1.90
2017-07-12T06:36:16.539Z,1.40
2017-07-12T06:38:43.777Z,1.83
2017-07-12T06:41:11.001Z,1.67
2017-07-12T06:43:38.238Z,2.07
2017-07-12T06:46:05.466Z,1.70
2017-07-12T06:48:32.697Z,1.97
2017-07-12T06:50:59.921Z,1.60
2017-07-12T06:53:27.144Z,1.33
2017-07-12T06:55:54.365Z,1.67
2017-07-12T06:58:21.595Z,1.93
2017-07-12T07:00:48.826Z,1.50
2017-07-12T07:03:16.051Z,1.33
2017-07-12T07:05:43.298Z,1.40
2017-07-12T07:08:10.522Z,1.80
2017-07-12T07:10:37.751Z,1.50
2017-07-12T07:13:04.975Z,1.67
2017-07-12T07:15:32.204Z,1.90
2017-07-12T07:17:59.431Z,1.80
2017-07-12T07:20:26.659Z,1.90
2017-07-12T07:22:55.815Z,1.87
2017-07-12T07:25:23.037Z,1.90
2017-07-12T07:27:50.252Z,1.60
2017-07-12T07:30:17.473Z,1.93
2017-07-12T07:32:44.694Z,1.87
2017-07-12T07:35:11.922Z,2.00
2017-07-12T07:37:39.159Z,1.70
2017-07-12T07:40:08.335Z,1.63
2017-07-12T07:42:35.575Z,1.90
2017-07-12T07:45:02.792Z,1.70
2017-07-12T07:47:30.315Z,1.87
2017-07-12T07:49:57.541Z,1.70
2017-07-12T07:52:24.773Z,1.60
2017-07-12T07:54:51.998Z,2.00
2017-07-12T07:57:19.224Z,1.80
2017-07-12T07:59:46.457Z,1.90
2017-07-12T08:02:13.678Z,1.93
2017-07-12T08:04:40.901Z,1.70
2017-07-12T08:07:10.046Z,1.97
2017-07-12T08:09:37.272Z,2.07
2017-07-12T08:12:04.494Z,1.97
2017-07-12T08:14:33.674Z,2.20
2017-07-12T08:17:00.918Z,2.37
2017-07-12T08:19:28.140Z,1.60
2017-07-12T08:21:55.388Z,2.20
2017-07-12T08:24:22.605Z,1.60
2017-07-12T08:26:49.830Z,1.87
2017-07-12T08:29:17.063Z,1.60
2017-07-12T08:31:46.210Z,1.67
2017-07-12T08:34:13.433Z,1.67
2017-07-12T08:36:40.668Z,1.70
2017-07-12T08:39:07.893Z,1.80
2017-07-12T08:41:35.114Z,1.30
2017-07-12T08:44:02.336Z,1.60
2017-07-12T08:46:29.572Z,1.70
2017-07-12T08:48:58.737Z,1.90
2017-07-12T08:51:25.960Z,1.57
2017-07-12T08:53:53.189Z,1.77
2017-07-12T08:56:20.414Z,1.70
2017-07-12T08:58:47.645Z,2.10
2017-07-12T09:01:14.878Z,2.00
2017-07-12T09:03:42.126Z,2.07
2017-07-12T09:06:09.361Z,1.90
2017-07-12T09:08:36.595Z,1.90
2017-07-12T09:11:03.829Z,2.60
2017-07-12T09:13:31.056Z,2.17
2017-07-12T09:15:58.282Z,1.87
2017-07-12T09:18:25.509Z,2.43
2017-07-12T09:20:52.743Z,2.10
2017-07-12T09:23:19.985Z,2.33
2017-07-12T09:33:08.657Z,2.00
2017-07-12T09:35:35.882Z,1.70
2017-07-12T09:38:03.115Z,1.87
2017-07-12T09:40:30.345Z,1.93
2017-07-12T09:42:57.565Z,1.50
2017-07-12T09:45:24.789Z,1.90
2017-07-12T09:47:52.018Z,1.77
2017-07-12T09:50:19.262Z,1.73
2017-07-12T09:52:46.491Z,1.60
2017-07-12T09:55:13.781Z,2.00
2017-07-12T09:57:42.936Z,1.63
2017-07-12T10:00:10.170Z,1.60
2017-07-12T10:02:37.397Z,1.70
2017-07-12T10:05:04.629Z,1.97
2017-07-12T10:07:31.858Z,1.60
2017-07-12T10:09:59.093Z,2.10
2017-07-12T10:12:26.351Z,1.77
2017-07-12T10:14:53.575Z,1.70
2017-07-12T10:17:20.798Z,1.93
2017-07-12T10:19:48.022Z,1.70
2017-07-12T10:22:15.240Z,1.80
2017-07-12T10:24:42.465Z,2.00
2017-07-12T10:27:09.688Z,1.90
2017-07-12T10:29:36.917Z,2.20
2017-07-12T10:32:06.075Z,2.60
2017-07-12T10:34:33.301Z,2.10
2017-07-12T10:37:00.525Z,2.07
2017-07-12T10:39:27.753Z,1.87
2017-07-12T10:41:54.982Z,2.10
2017-07-12T10:44:22.210Z,2.10
2017-07-12T10:46:49.444Z,2.20
2017-07-12T10:49:16.671Z,2.23
2017-07-12T10:51:43.893Z,2.33
2017-07-12T10:54:11.113Z,2.30
2017-07-12T10:56:38.348Z,2.00
2017-07-12T10:59:05.572Z,2.73
2017-07-12T11:01:32.801Z,2.73
2017-07-12T11:04:00.049Z,2.23
2017-07-12T11:06:27.269Z,2.57
2017-07-12T11:08:54.494Z,2.00
2017-07-12T11:11:21.717Z,2.43
2017-07-12T11:13:48.960Z,2.53
2017-07-12T11:16:16.197Z,2.60
2017-07-12T11:18:43.422Z,2.70
2017-07-12T11:21:10.653Z,2.70
2017-07-12T11:23:37.879Z,2.17
2017-07-12T11:26:05.102Z,2.43
2017-07-12T11:28:32.330Z,2.37
2017-07-12T11:30:59.567Z,2.00
2017-07-12T11:33:26.797Z,2.03
2017-07-12T11:35:54.041Z,2.63
2017-07-12T11:38:21.290Z,2.50
2017-07-12T11:40:48.512Z,2.20
2017-07-12T11:43:15.742Z,2.07
2017-07-12T11:45:42.965Z,2.10
2017-07-12T11:48:12.114Z,2.30
2017-07-12T11:50:39.337Z,2.20
2017-07-12T11:53:06.561Z,2.40
2017-07-12T11:55:33.788Z,2.27
2017-07-12T11:58:01.017Z,2.10
2017-07-12T12:00:28.247Z,2.23
2017-07-12T12:02:55.487Z,2.20
2017-07-12T12:05:22.949Z,2.20
2017-07-12T12:07:52.137Z,2.10
2017-07-12T12:10:19.378Z,2.13
2017-07-12T12:12:46.613Z,1.90
2017-07-12T12:15:13.845Z,1.97
2017-07-12T12:17:41.086Z,2.30
2017-07-12T12:20:08.327Z,2.10
2017-07-12T12:22:35.553Z,1.80
2017-07-12T12:25:02.793Z,1.87
2017-07-12T12:27:30.017Z,2.43
2017-07-12T12:29:57.269Z,2.30
2017-07-12T12:32:24.497Z,1.90
2017-07-12T12:34:51.748Z,1.73
2017-07-12T12:37:18.992Z,2.40
2017-07-12T12:39:46.226Z,1.80
2017-07-12T12:42:15.411Z,1.90
2017-07-12T12:44:42.645Z,2.30
2017-07-12T12:47:09.873Z,1.90
2017-07-12T12:49:37.102Z,2.00
2017-07-12T12:52:04.338Z,1.63
2017-07-12T12:54:32.323Z,1.97
2017-07-12T12:56:59.367Z,2.00
2017-07-12T12:59:27.397Z,1.60
2017-07-12T13:01:54.625Z,2.03
2017-07-12T13:04:28.225Z,2.13
2017-07-12T13:06:55.464Z,2.17
2017-07-12T13:09:22.695Z,1.90
2017-07-12T13:11:49.941Z,3.57
2017-07-12T13:14:17.173Z,1.97
2017-07-12T13:16:44.414Z,2.07
2017-07-12T13:19:11.645Z,2.17
2017-07-12T13:21:38.870Z,2.00
2017-07-12T13:24:06.109Z,1.90
2017-07-12T13:26:33.336Z,2.00
2017-07-12T13:29:00.576Z,1.97
2017-07-12T13:31:27.824Z,1.67
2017-07-12T13:33:55.053Z,1.77
2017-07-12T13:36:22.278Z,1.63
2017-07-12T13:38:49.502Z,2.07
2017-07-12T13:41:18.663Z,1.50
2017-07-12T13:43:45.901Z,1.70
2017-07-12T13:46:13.133Z,1.87
2017-07-12T13:48:40.359Z,1.80
2017-07-12T13:51:07.581Z,2.07
2017-07-12T13:53:36.730Z,1.70
2017-07-12T13:56:03.953Z,2.07
2017-07-12T13:58:31.196Z,2.17
2017-07-12T14:00:58.417Z,1.87
2017-07-12T14:03:25.643Z,1.97
2017-07-12T14:05:52.879Z,2.20
2017-07-12T14:08:20.111Z,1.73
2017-07-12T14:10:47.355Z,2.10
2017-07-12T14:13:16.551Z,1.90
2017-07-12T14:15:43.786Z,2.57
2017-07-12T14:18:11.021Z,2.20
2017-07-12T14:20:40.227Z,2.23
2017-07-12T14:23:07.464Z,1.70
2017-07-12T14:25:34.705Z,1.80
2017-07-12T14:28:03.875Z,2.00
2017-07-12T14:30:31.108Z,2.00
2017-07-12T14:32:58.336Z,1.50
2017-07-12T14:35:27.525Z,1.47
2017-07-12T14:37:54.751Z,1.83
2017-07-12T14:40:21.972Z,1.77
2017-07-12T14:42:49.197Z,1.70
2017-07-12T14:45:16.426Z,1.50
2017-07-12T14:47:43.653Z,1.43
2017-07-12T14:50:10.883Z,1.53
2017-07-12T14:52:40.070Z,1.60
2017-07-12T14:55:07.302Z,1.80
2017-07-12T14:57:34.531Z,1.57
2017-07-12T15:00:01.752Z,1.80
2017-07-12T15:02:28.990Z,1.70
2017-07-12T15:04:56.213Z,1.87
2017-07-12T15:07:25.362Z,1.30
2017-07-12T15:09:52.599Z,1.67
2017-07-12T15:12:19.835Z,1.47
2017-07-12T15:14:47.065Z,1.40
2017-07-12T15:17:16.243Z,1.50
2017-07-12T15:19:43.469Z,1.73
2017-07-12T15:22:12.669Z,1.50
2017-07-12T15:24:39.894Z,1.60
2017-07-12T15:27:07.127Z,1.30
2017-07-12T15:29:34.363Z,1.30
2017-07-12T15:32:01.589Z,1.33
2017-07-12T15:34:28.821Z,1.50
2017-07-12T15:36:56.042Z,1.50
2017-07-12T15:39:25.190Z,1.37
2017-07-12T15:41:52.408Z,1.50
2017-07-12T15:44:19.633Z,1.57
2017-07-12T15:46:46.857Z,1.40
2017-07-12T15:49:14.083Z,1.47
2017-07-12T15:51:41.310Z,1.50
2017-07-12T15:54:08.540Z,1.67
2017-07-12T15:56:35.765Z,1.60
2017-07-12T15:59:02.994Z,1.47
2017-07-12T16:01:30.220Z,1.63
2017-07-12T16:03:57.445Z,1.70
2017-07-12T16:06:24.677Z,2.00
2017-07-12T16:08:51.911Z,1.57
2017-07-12T16:11:19.140Z,1.63
2017-07-12T16:13:46.380Z,1.60
2017-07-12T16:16:13.605Z,1.60
2017-07-12T16:18:40.833Z,1.70
2017-07-12T16:21:08.061Z,1.73
2017-07-12T16:23:35.289Z,1.37
2017-07-12T16:26:02.509Z,1.43
2017-07-12T16:28:29.734Z,1.60
2017-07-12T16:30:58.901Z,1.40
2017-07-12T16:33:26.134Z,1.50
2017-07-12T16:35:53.375Z,1.50
2017-07-12T16:38:22.557Z,1.77
2017-07-12T16:40:49.791Z,1.50
2017-07-12T16:43:17.047Z,1.80
2017-07-12T16:45:44.283Z,1.60
2017-07-12T16:48:11.513Z,1.37
2017-07-12T16:50:38.740Z,1.63
2017-07-12T16:53:05.970Z,1.40
2017-07-12T16:55:33.234Z,1.30
2017-07-12T16:58:00.462Z,1.50
2017-07-12T17:00:27.705Z,1.53
2017-07-12T17:02:54.933Z,1.73
2017-07-12T17:05:22.162Z,1.47
2017-07-12T17:07:49.397Z,1.60
2017-07-12T17:10:16.633Z,1.40
2017-07-12T17:12:43.871Z,1.60
2017-07-12T17:15:11.097Z,1.30
2017-07-12T17:17:38.334Z,1.20
2017-07-12T17:20:05.576Z,1.60
2017-07-12T17:22:32.796Z,1.60
2017-07-12T17:25:00.048Z,1.43
2017-07-12T17:27:27.290Z,1.77
2017-07-12T17:29:54.523Z,1.50
2017-07-12T17:32:21.747Z,1.20
2017-07-12T17:34:48.974Z,1.87
2017-07-12T17:37:16.200Z,1.40
2017-07-12T17:39:43.430Z,1.40
2017-07-12T17:42:10.656Z,1.80
2017-07-12T17:44:37.910Z,1.40
2017-07-12T17:47:05.169Z,1.40
2017-07-12T17:49:32.394Z,1.30
2017-07-12T17:51:59.626Z,1.33
2017-07-12T17:54:26.865Z,1.90
2017-07-12T17:56:54.102Z,1.40
2017-07-12T17:59:21.345Z,1.50
2017-07-12T18:01:48.610Z,1.40
2017-07-12T18:04:15.835Z,1.17
2017-07-12T18:06:43.072Z,1.57
2017-07-12T18:09:12.256Z,1.67
2017-07-12T18:11:39.477Z,1.33
2017-07-12T18:14:06.726Z,1.43
2017-07-12T18:16:36.145Z,1.10
2017-07-12T18:19:03.372Z,1.33
2017-07-12T18:21:30.935Z,1.10
2017-07-12T18:23:58.231Z,1.43
2017-07-12T18:26:27.422Z,1.40
2017-07-12T18:28:54.605Z,1.60
2017-07-12T18:31:21.921Z,1.53
2017-07-12T18:33:50.726Z,1.30
2017-07-12T18:36:17.956Z,1.30
2017-07-12T18:38:45.181Z,1.43
2017-07-12T18:41:12.401Z,1.10
2017-07-12T18:43:39.629Z,1.30
2017-07-12T18:46:06.857Z,1.60
2017-07-12T18:48:34.084Z,3.37
2017-07-12T18:51:03.258Z,1.83
2017-07-12T18:53:30.494Z,2.80
2017-07-12T18:55:58.012Z,2.60
2017-07-12T18:58:25.535Z,2.33
2017-07-12T19:00:53.050Z,3.42
2017-07-12T19:03:20.561Z,2.72
2017-07-12T19:05:48.082Z,3.15
2017-07-12T19:08:15.614Z,3.33
2017-07-12T19:10:43.158Z,3.08
2017-07-12T19:13:11.062Z,3.35
2017-07-12T19:15:38.627Z,3.15
2017-07-12T19:18:06.152Z,2.37
2017-07-12T19:20:33.709Z,2.87
2017-07-12T19:23:01.330Z,2.30
2017-07-12T19:25:28.866Z,2.78
2017-07-12T19:27:56.414Z,2.50
2017-07-12T19:30:23.938Z,2.62
2017-07-12T19:32:51.465Z,2.50
2017-07-12T19:35:19.005Z,2.30
2017-07-12T19:37:46.515Z,2.45
2017-07-12T19:40:14.057Z,2.40
2017-07-12T19:42:41.573Z,2.40
2017-07-12T19:45:09.115Z,2.37
2017-07-12T19:47:36.858Z,2.30
2017-07-12T19:50:04.786Z,2.47
2017-07-12T19:52:33.304Z,2.35
2017-07-12T19:55:01.821Z,2.03
2017-07-12T19:57:30.370Z,2.22
2017-07-12T19:59:57.886Z,2.20
2017-07-12T20:02:25.394Z,1.87
2017-07-12T20:04:52.922Z,2.28
2017-07-12T20:07:20.452Z,2.30
2017-07-12T20:09:47.978Z,1.83
2017-07-12T20:12:15.503Z,1.90
2017-07-12T20:14:43.023Z,1.83
2017-07-12T20:17:11.867Z,2.03
2017-07-12T20:19:39.381Z,1.60
2017-07-12T20:22:06.934Z,1.75
2017-07-12T20:24:34.438Z,1.50
2017-07-12T20:27:01.944Z,1.52
2017-07-12T20:29:29.449Z,1.80
2017-07-12T20:31:56.966Z,1.60
2017-07-12T20:34:24.469Z,1.70
2017-07-12T20:36:51.979Z,1.85
2017-07-12T20:39:20.409Z,1.35
2017-07-12T20:41:49.418Z,1.62
2017-07-12T20:44:17.847Z,1.60
2017-07-12T20:46:45.386Z,1.58
2017-07-12T20:49:12.881Z,1.62
2017-07-12T20:51:41.356Z,1.42
2017-07-12T20:54:08.883Z,1.65
2017-07-12T20:56:36.398Z,1.70
2017-07-12T20:59:03.914Z,1.83
2017-07-12T21:01:31.434Z,2.33
2017-07-12T21:03:58.943Z,2.10
2017-07-12T21:06:26.472Z,2.58
2017-07-12T21:08:54.997Z,2.10
2017-07-12T21:11:22.508Z,2.10
2017-07-12T21:13:51.035Z,2.17
2017-07-12T21:16:18.638Z,2.40
2017-07-12T21:18:46.171Z,2.60
2017-07-12T21:21:13.921Z,2.35
2017-07-12T21:23:41.463Z,2.90
2017-07-12T21:26:09.233Z,2.70
2017-07-12T21:28:36.757Z,2.50
2017-07-12T21:31:04.266Z,2.55
2017-07-12T21:33:31.884Z,2.80
2017-07-12T21:35:59.398Z,2.37
2017-07-12T21:38:26.909Z,2.83
2017-07-12T21:40:55.409Z,2.80
2017-07-12T21:43:22.917Z,2.70
2017-07-12T21:45:50.425Z,2.87
2017-07-12T21:48:17.933Z,2.83
2017-07-12T21:50:45.448Z,2.40
2017-07-12T21:53:24.139Z,2.22
2017-07-12T21:56:02.913Z,2.83
2017-07-12T21:58:41.754Z,2.55
2017-07-12T22:01:20.574Z,2.83
2017-07-12T22:03:59.457Z,3.00
2017-07-12T22:06:38.309Z,2.53
2017-07-12T22:09:17.313Z,2.75
2017-07-12T22:11:56.094Z,2.47
2017-07-12T22:14:34.926Z,2.95
2017-07-12T22:17:13.799Z,2.60
2017-07-12T22:19:52.638Z,2.95
2017-07-12T22:22:31.461Z,2.05
2017-07-12T22:25:10.312Z,1.67
2017-07-12T22:27:49.122Z,1.50
2017-07-12T22:30:27.897Z,1.30
2017-07-12T22:33:06.673Z,1.25
2017-07-12T22:35:45.463Z,1.35
2017-07-12T22:38:18.486Z,1.20
2017-07-12T22:40:56.047Z,1.10
2017-07-12T22:43:29.097Z,1.20
2017-07-12T22:45:56.615Z,1.40
2017-07-12T22:48:24.483Z,1.48
2017-07-12T22:50:52.044Z,1.23
2017-07-12T22:53:19.547Z,1.00
2017-07-12T22:55:47.062Z,1.10
2017-07-12T22:58:17.039Z,1.40
2017-07-12T23:03:43.765Z,1.60
2017-07-12T23:06:11.343Z,1.40
2017-07-12T23:08:42.930Z,1.40
2017-07-12T23:11:10.446Z,1.17
2017-07-12T23:13:37.802Z,1.62
2017-07-12T23:16:06.318Z,1.60
2017-07-12T23:18:33.911Z,1.95
2017-07-12T23:21:01.626Z,1.60
2017-07-12T23:23:30.357Z,1.85
2017-07-12T23:25:57.876Z,1.77
2017-07-12T23:28:25.419Z,1.95
2017-07-12T23:30:52.951Z,2.05
2017-07-12T23:33:20.713Z,2.65
2017-07-12T23:35:48.230Z,1.92
2017-07-12T23:38:15.751Z,2.10
2017-07-12T23:40:43.273Z,1.90
2017-07-12T23:43:10.790Z,1.70
2017-07-12T23:45:39.338Z,2.37
2017-07-12T23:48:07.853Z,1.80
2017-07-12T23:50:35.374Z,2.40
2017-07-12T23:53:02.893Z,2.25
2017-07-12T23:55:30.430Z,2.00
2017-07-12T23:57:57.952Z,1.87
